Frakt Vik — 5BKU4 — position and weather

sailwx.info

Track history (hours):
 
Tides and Currents Weather Stations Pressure Air Temp Water Temp Dewpoint Dewpoint Depression Visibility Wind Speed Wind Dir Waves Ship Positions

Frakt Vik

Last reported at 2018-Feb-17 19:23 UTC. Time now 2018-Feb-18 09:12 UTC.
Position N 39°24' W 009°50'.

Length 90 m; draft 3.9 m.

Type: Ship. MMSI: 212979000.

Date/timePositionNaut miles runAvg speedWind from/ knotsBaromVisibWave heightAir tempDewpointWater temp
2018-Feb-17 19:23N 39°24' W 009°50'3 8.8
2018-Feb-17 19:00N 39°21' W 009°50'4 7.8
2018-Feb-17 18:29N 39°17' W 009°50'4 8.0
2018-Feb-17 18:00N 39°13' W 009°51'4 8.5
2018-Feb-17 17:29N 39°08' W 009°51'4 8.8
2018-Feb-17 17:00N 39°04' W 009°50'5 9.1
2018-Feb-17 16:29N 38°59' W 009°50'5 9.6
2018-Feb-17 16:00N 38°55' W 009°50'5 9.7
2018-Feb-17 15:30N 38°50' W 009°50'710.1
2018-Feb-17 14:51N 38°43' W 009°50'3 9.8
2018-Feb-17 14:30N 38°40' W 009°50'5 9.8
2018-Feb-17 13:59N 38°35' W 009°48'2510.2
2018-Feb-17 11:29N 38°10' W 009°40'710.5
2018-Feb-17 10:52N 38°04' W 009°39'  
2018-Feb-14 09:21N 37°24' W 001°06'412.6
2018-Feb-14 09:00N 37°26' W 001°01'612.3
2018-Feb-14 08:29N 37°28' W 000°53'612.1
2018-Feb-14 08:00N 37°30' W 000°46'911.6
2018-Feb-14 07:11N 37°34' W 000°35'211.0
2018-Feb-14 07:00N 37°35' W 000°33'611.2
2018-Feb-14 06:30N 37°40' W 000°30'8 0.2
2018-Feb-12 09:21N 37°45' W 000°21'412.7
2018-Feb-12 09:00N 37°41' W 000°24'612.5
2018-Feb-12 08:30N 37°36' W 000°29'612.4
2018-Feb-12 08:01N 37°32' W 000°34'612.4
2018-Feb-12 07:29N 37°27' W 000°40'612.1
2018-Feb-12 07:01N 37°23' W 000°45'612.0
2018-Feb-12 06:30N 37°19' W 000°51'812.4
2018-Feb-12 05:51N 37°14' W 000°58'412.4
2018-Feb-12 05:30N 37°11' W 001°03'21212.0
2018-Feb-11 11:54N 36°00' W 005°12'615.2
2018-Feb-11 11:31N 35°59' W 005°19'714.5
2018-Feb-11 11:00N 35°58' W 005°28'  
Track history (hours):
 
Tides and Currents Weather Stations Pressure Air Temp Water Temp Dewpoint Dewpoint Depression Visibility Wind Speed Wind Dir Waves Ship Positions

Frakt Vik

Last reported at 2018-Feb-17 19:23 UTC. Time now 2018-Feb-18 09:12 UTC.
Position N 39°24' W 009°50'.

Length 90 m; draft 3.9 m.

Type: Ship. MMSI: 212979000.

Date/timePositionNaut miles runAvg speedWind from/ knotsBaromVisibWave heightAir tempDewpointWater temp
2018-Feb-17 19:23N 39°24' W 009°50'3 8.8
2018-Feb-17 19:00N 39°21' W 009°50'4 7.8
2018-Feb-17 18:29N 39°17' W 009°50'4 8.0
2018-Feb-17 18:00N 39°13' W 009°51'4 8.5
2018-Feb-17 17:29N 39°08' W 009°51'4 8.8
2018-Feb-17 17:00N 39°04' W 009°50'5 9.1
2018-Feb-17 16:29N 38°59' W 009°50'5 9.6
2018-Feb-17 16:00N 38°55' W 009°50'5 9.7
2018-Feb-17 15:30N 38°50' W 009°50'710.1
2018-Feb-17 14:51N 38°43' W 009°50'3 9.8
2018-Feb-17 14:30N 38°40' W 009°50'5 9.8
2018-Feb-17 13:59N 38°35' W 009°48'2510.2
2018-Feb-17 11:29N 38°10' W 009°40'710.5
2018-Feb-17 10:52N 38°04' W 009°39'  
2018-Feb-14 09:21N 37°24' W 001°06'412.6
2018-Feb-14 09:00N 37°26' W 001°01'612.3
2018-Feb-14 08:29N 37°28' W 000°53'612.1
2018-Feb-14 08:00N 37°30' W 000°46'911.6
2018-Feb-14 07:11N 37°34' W 000°35'211.0
2018-Feb-14 07:00N 37°35' W 000°33'611.2
2018-Feb-14 06:30N 37°40' W 000°30'8 0.2
2018-Feb-12 09:21N 37°45' W 000°21'412.7
2018-Feb-12 09:00N 37°41' W 000°24'612.5
2018-Feb-12 08:30N 37°36' W 000°29'612.4
2018-Feb-12 08:01N 37°32' W 000°34'612.4
2018-Feb-12 07:29N 37°27' W 000°40'612.1
2018-Feb-12 07:01N 37°23' W 000°45'612.0
2018-Feb-12 06:30N 37°19' W 000°51'812.4
2018-Feb-12 05:51N 37°14' W 000°58'412.4
2018-Feb-12 05:30N 37°11' W 001°03'21212.0
2018-Feb-11 11:54N 36°00' W 005°12'615.2
2018-Feb-11 11:31N 35°59' W 005°19'714.5
2018-Feb-11 11:00N 35°58' W 005°28'  

Dump ship's entire track history